createdAt,value
2023-03-23T16:00:44.431Z,17.70
2023-03-23T16:05:46.256Z,17.83
2023-03-23T16:10:47.697Z,17.74
2023-03-23T16:15:49.573Z,17.66
2023-03-23T16:20:51.034Z,17.72
2023-03-23T16:25:52.744Z,17.71
2023-03-23T16:30:54.241Z,17.56
2023-03-23T16:35:57.493Z,17.57
2023-03-23T16:40:59.338Z,17.52
2023-03-23T16:46:01.067Z,17.51
2023-03-23T16:51:02.544Z,17.42
2023-03-23T16:56:05.160Z,17.40
2023-03-23T17:01:07.339Z,17.42
2023-03-23T17:06:09.316Z,17.55
2023-03-23T17:11:11.477Z,17.34
2023-03-23T17:16:13.056Z,17.19
2023-03-23T17:21:14.618Z,17.24
2023-03-23T17:26:16.263Z,17.26
2023-03-23T17:31:17.747Z,17.27
2023-03-23T17:36:19.725Z,17.17
2023-03-23T17:41:21.452Z,16.97
2023-03-23T17:46:23.032Z,16.98
2023-03-23T17:51:24.582Z,16.95
2023-03-23T17:56:26.034Z,16.91
2023-03-23T18:01:27.727Z,16.90
2023-03-23T18:06:29.207Z,16.93
2023-03-23T18:11:30.781Z,16.84
2023-03-23T18:16:32.346Z,16.66
2023-03-23T18:21:33.807Z,16.59
2023-03-23T18:26:35.699Z,16.46
2023-03-23T18:31:40.155Z,16.65
2023-03-23T18:36:41.718Z,16.58
2023-03-23T18:41:43.172Z,16.58
2023-03-23T18:46:44.684Z,16.55
2023-03-23T18:51:46.127Z,16.54
2023-03-23T18:56:47.672Z,16.62
2023-03-23T19:01:49.742Z,16.62
2023-03-23T19:06:51.367Z,16.55
2023-03-23T19:11:52.863Z,16.55
2023-03-23T19:16:54.281Z,16.55
2023-03-23T19:21:55.861Z,16.43
2023-03-23T19:26:57.339Z,16.45
2023-03-23T19:31:58.971Z,16.50
2023-03-23T19:37:05.552Z,16.52
2023-03-23T19:42:08.812Z,16.41
2023-03-23T19:47:10.643Z,16.41
2023-03-23T19:52:14.450Z,16.34
2023-03-23T19:57:17.174Z,16.28
2023-03-23T20:02:18.706Z,16.14
2023-03-23T20:07:21.359Z,16.09
2023-03-23T20:12:22.919Z,16.15
2023-03-23T20:17:25.819Z,16.18
2023-03-23T20:22:27.380Z,16.20
2023-03-23T20:27:28.843Z,16.18
2023-03-23T20:32:33.062Z,16.17
2023-03-23T20:37:39.097Z,16.17
2023-03-23T20:42:43.814Z,16.16
2023-03-23T20:47:46.567Z,16.17
2023-03-23T20:52:48.020Z,16.04
2023-03-23T20:57:49.516Z,16.15
2023-03-23T21:02:54.089Z,16.00
2023-03-23T21:07:57.993Z,15.75
2023-03-23T21:12:59.970Z,15.69
2023-03-23T21:18:01.450Z,15.55
2023-03-23T21:23:05.749Z,15.52
2023-03-23T21:28:08.859Z,15.37
2023-03-23T21:33:10.377Z,15.25
2023-03-23T21:38:14.395Z,15.21
2023-03-23T21:43:16.831Z,15.12
2023-03-23T21:48:18.282Z,15.12
2023-03-23T21:53:20.502Z,15.06
2023-03-23T21:58:24.809Z,15.00
2023-03-23T22:03:26.693Z,14.98
2023-03-23T22:08:29.185Z,14.96
2023-03-23T22:13:32.914Z,14.87
2023-03-23T22:18:37.855Z,14.82
2023-03-23T22:23:39.869Z,14.80
2023-03-23T22:28:41.965Z,14.70
2023-03-23T22:33:43.706Z,14.63
2023-03-23T22:38:47.863Z,14.52
2023-03-23T22:43:49.397Z,14.44
2023-03-23T22:48:51.228Z,14.28
2023-03-23T22:53:52.763Z,14.18
2023-03-23T22:58:54.663Z,13.95
2023-03-23T23:03:56.259Z,14.04
2023-03-23T23:08:57.738Z,14.08
2023-03-23T23:13:59.207Z,14.10
2023-03-23T23:19:00.653Z,14.09
2023-03-23T23:24:02.087Z,14.09
2023-03-23T23:29:03.992Z,14.14
2023-03-23T23:34:06.154Z,14.13
2023-03-23T23:39:07.653Z,14.08
2023-03-23T23:44:09.148Z,14.01
2023-03-23T23:49:10.595Z,14.08
2023-03-23T23:54:14.823Z,14.20
2023-03-23T23:59:17.020Z,14.15
